Time;durP1;ratioP1;P1;durP2;ratioP2;P2;SDS_P1;SDS_P2;PMS_P1;PMS_P2;Temp;Humidity;BMP_temperature;BMP_pressure;BME280_temperature;BME280_humidity;BME280_pressure;Samples;Min_cycle;Max_cycle;Signal;HPM_P1;HPM_P2
2021/03/07 00:02:23;;;;;;;13.60;8.70;;;1.40;65.90;;;;;;5024172;28;20517;-42
2021/03/07 00:04:49;;;;;;;13.73;9.67;;;1.40;66.00;;;;;;5025376;28;20486;-42
2021/03/07 00:07:15;;;;;;;12.17;9.20;;;1.40;66.00;;;;;;5022890;28;20964;-42
2021/03/07 00:09:42;;;;;;;14.23;9.83;;;1.30;65.90;;;;;;4988915;28;20460;-42
2021/03/07 00:12:08;;;;;;;12.30;8.50;;;1.30;65.90;;;;;;5040196;28;20526;-42
2021/03/07 00:14:34;;;;;;;11.67;9.43;;;1.30;65.90;;;;;;5027257;28;20467;-41
2021/03/07 00:17:01;;;;;;;10.67;8.80;;;1.30;65.80;;;;;;5024515;28;20468;-41
2021/03/07 00:19:28;;;;;;;11.23;9.00;;;1.20;65.70;;;;;;5019806;28;20479;-42
2021/03/07 00:21:54;;;;;;;13.47;9.33;;;1.20;65.80;;;;;;4992218;28;20953;-42
2021/03/07 00:24:21;;;;;;;11.37;8.50;;;1.20;65.80;;;;;;5009397;28;20486;-42
2021/03/07 00:26:54;;;;;;;9.77;8.53;;;1.20;65.90;;;;;;5022284;28;20536;-42
2021/03/07 00:29:20;;;;;;;14.33;11.17;;;1.20;66.00;;;;;;5029358;28;20522;-42
2021/03/07 00:31:47;;;;;;;12.00;10.27;;;1.20;66.10;;;;;;5008387;28;20485;-42
2021/03/07 00:34:14;;;;;;;13.57;10.33;;;1.10;66.00;;;;;;5010518;28;20525;-42
2021/03/07 00:36:40;;;;;;;11.63;9.50;;;1.10;66.10;;;;;;5010971;28;20455;-42
2021/03/07 00:39:10;;;;;;;12.50;8.90;;;1.10;66.20;;;;;;5026354;28;20558;-42
2021/03/07 00:41:40;;;;;;;13.90;8.27;;;1.10;66.30;;;;;;5012385;28;20531;-42
2021/03/07 00:44:11;;;;;;;13.90;9.00;;;1.10;66.40;;;;;;5021444;28;20875;-42
2021/03/07 00:46:39;;;;;;;13.77;9.10;;;1.10;66.40;;;;;;5027558;28;20458;-42
2021/03/07 00:49:06;;;;;;;11.33;8.60;;;1.10;66.40;;;;;;5028534;28;20538;-42
2021/03/07 00:51:33;;;;;;;8.60;7.33;;;1.00;66.40;;;;;;5028779;28;20447;-42
2021/03/07 00:54:07;;;;;;;8.17;7.37;;;1.00;66.40;;;;;;5031661;28;20450;-42
2021/03/07 00:56:33;;;;;;;10.27;8.40;;;1.00;66.50;;;;;;5030173;28;20546;-42
2021/03/07 00:59:07;;;;;;;14.40;8.20;;;1.00;66.60;;;;;;5032254;28;20573;-42
2021/03/07 01:01:34;;;;;;;11.20;7.17;;;1.00;66.70;;;;;;5011557;28;20544;-42
2021/03/07 01:04:03;;;;;;;10.27;7.50;;;1.00;66.80;;;;;;5013324;28;20443;-42
2021/03/07 01:06:29;;;;;;;10.80;7.53;;;0.90;66.80;;;;;;5015407;28;20455;-42
2021/03/07 01:08:55;;;;;;;10.13;7.80;;;0.90;66.80;;;;;;5010510;28;20462;-42
2021/03/07 01:11:21;;;;;;;10.30;8.00;;;0.90;66.80;;;;;;5007347;28;20837;-42
2021/03/07 01:13:47;;;;;;;9.93;8.60;;;0.90;66.90;;;;;;5011552;28;20512;-42
2021/03/07 01:16:14;;;;;;;11.93;7.50;;;0.80;66.90;;;;;;5027945;28;20862;-42
2021/03/07 01:18:41;;;;;;;10.87;7.70;;;0.80;67.00;;;;;;5012240;28;20487;-42
2021/03/07 01:21:14;;;;;;;10.83;7.97;;;0.80;67.10;;;;;;5029786;28;20988;-42
2021/03/07 01:23:43;;;;;;;13.30;8.10;;;0.80;67.30;;;;;;5029395;28;20535;-42
2021/03/07 01:26:09;;;;;;;13.97;7.47;;;0.80;67.30;;;;;;5023117;28;20539;-42
2021/03/07 01:28:37;;;;;;;12.93;8.00;;;0.80;67.30;;;;;;5012740;28;20535;-42
2021/03/07 01:31:04;;;;;;;11.43;7.80;;;0.80;67.40;;;;;;5030601;28;20455;-42
2021/03/07 01:33:30;;;;;;;10.70;8.73;;;0.80;67.40;;;;;;4998041;28;20502;-42
2021/03/07 01:36:02;;;;;;;12.17;7.50;;;0.80;67.50;;;;;;5029298;28;20790;-42
2021/03/07 01:38:32;;;;;;;9.17;7.57;;;0.70;67.60;;;;;;5009886;28;20511;-42
2021/03/07 01:41:02;;;;;;;10.83;8.00;;;0.80;67.70;;;;;;5029937;28;20462;-42
2021/03/07 01:43:33;;;;;;;10.40;8.47;;;0.70;67.70;;;;;;5026344;28;20502;-41
2021/03/07 01:46:01;;;;;;;13.80;8.70;;;0.70;67.70;;;;;;4993958;28;20454;-42
2021/03/07 01:48:27;;;;;;;11.37;8.10;;;0.70;67.70;;;;;;5032462;28;20535;-42
2021/03/07 01:50:54;;;;;;;10.73;7.70;;;0.70;67.70;;;;;;5028719;28;20463;-42
2021/03/07 01:53:22;;;;;;;10.20;7.80;;;0.70;67.90;;;;;;5008069;28;20527;-42
2021/03/07 01:55:50;;;;;;;11.53;8.67;;;0.70;67.90;;;;;;5012175;28;20455;-42
2021/03/07 01:58:28;;;;;;;10.70;7.60;;;0.60;68.00;;;;;;4994827;28;20872;-42
2021/03/07 02:00:56;;;;;;;13.90;9.00;;;0.60;68.00;;;;;;5012066;28;20476;-42
2021/03/07 02:03:22;;;;;;;13.87;8.97;;;0.60;68.10;;;;;;5028288;28;20533;-42
2021/03/07 02:05:49;;;;;;;13.10;8.90;;;0.60;68.10;;;;;;5013560;28;20546;-42
2021/03/07 02:08:17;;;;;;;11.83;8.30;;;0.60;68.10;;;;;;5013844;28;20456;-42
2021/03/07 02:11:05;;;;;;;10.83;8.53;;;0.60;68.20;;;;;;4993350;28;20464;-41
2021/03/07 02:13:40;;;;;;;12.43;9.50;;;0.60;68.20;;;;;;5023323;28;20513;-42
2021/03/07 02:16:15;;;;;;;10.50;7.83;;;0.60;68.30;;;;;;5025792;28;20542;-42
2021/03/07 02:18:43;;;;;;;10.40;9.40;;;0.50;68.30;;;;;;5032857;28;20562;-42
2021/03/07 02:21:24;;;;;;;10.03;7.90;;;0.50;68.30;;;;;;5030875;28;20825;-42
2021/03/07 02:24:05;;;;;;;12.93;8.77;;;0.50;68.40;;;;;;5023134;28;20472;-41
2021/03/07 02:26:39;;;;;;;10.73;8.00;;;0.50;68.50;;;;;;5031180;28;20744;-42
2021/03/07 02:29:08;;;;;;;9.17;8.27;;;0.50;68.50;;;;;;5026841;28;20443;-42
2021/03/07 02:31:42;;;;;;;10.30;7.80;;;0.50;68.60;;;;;;5027973;28;20456;-42
2021/03/07 02:34:19;;;;;;;9.50;7.43;;;0.50;68.70;;;;;;5030264;28;21001;-42
2021/03/07 02:36:52;;;;;;;12.53;8.70;;;0.40;68.70;;;;;;5023224;28;20470;-42
2021/03/07 02:39:23;;;;;;;11.97;8.10;;;0.40;68.70;;;;;;5027341;28;20506;-42
2021/03/07 02:41:52;;;;;;;12.30;8.30;;;0.40;68.70;;;;;;5024139;28;20542;-42
2021/03/07 02:44:19;;;;;;;10.30;8.43;;;0.40;68.90;;;;;;5025022;28;20566;-42
2021/03/07 02:46:47;;;;;;;11.40;7.60;;;0.40;68.80;;;;;;5005293;28;20957;-42
2021/03/07 02:49:17;;;;;;;11.70;8.63;;;0.40;68.90;;;;;;4985829;28;20467;-42
2021/03/07 02:51:48;;;;;;;9.57;7.97;;;0.40;68.90;;;;;;5016383;28;20464;-42
2021/03/07 02:54:17;;;;;;;8.73;7.37;;;0.40;69.00;;;;;;5021418;28;20462;-42
2021/03/07 02:56:50;;;;;;;9.33;7.70;;;0.40;69.10;;;;;;5017066;28;20486;-42
2021/03/07 02:59:17;;;;;;;9.57;7.73;;;0.40;69.10;;;;;;5022476;28;20557;-42
2021/03/07 03:01:47;;;;;;;8.67;7.40;;;0.30;69.20;;;;;;5019701;28;20468;-42
2021/03/07 03:04:14;;;;;;;12.60;8.80;;;0.30;69.20;;;;;;5004836;28;20471;-42
2021/03/07 03:06:42;;;;;;;11.80;7.87;;;0.30;69.20;;;;;;4985057;28;20571;-42
2021/03/07 03:09:11;;;;;;;11.07;7.90;;;0.30;69.30;;;;;;4998036;28;20535;-42
2021/03/07 03:11:39;;;;;;;10.00;7.80;;;0.30;69.40;;;;;;5020839;28;20559;-42
2021/03/07 03:14:13;;;;;;;12.70;8.30;;;0.30;69.40;;;;;;5014687;28;20463;-42
2021/03/07 03:16:45;;;;;;;12.90;8.20;;;0.30;69.50;;;;;;5018560;28;20949;-42
2021/03/07 03:19:13;;;;;;;9.47;8.10;;;0.30;69.50;;;;;;5025424;28;20895;-42
2021/03/07 03:21:40;;;;;;;10.03;7.63;;;0.20;69.50;;;;;;5019890;28;20464;-42
2021/03/07 03:24:10;;;;;;;10.83;8.53;;;0.20;69.50;;;;;;5023928;28;20460;-42
2021/03/07 03:26:36;;;;;;;12.17;8.03;;;0.20;69.60;;;;;;5018458;28;20459;-42
2021/03/07 03:29:04;;;;;;;9.03;7.70;;;0.20;69.60;;;;;;5020520;28;21045;-42
2021/03/07 03:31:32;;;;;;;11.87;8.57;;;0.10;69.60;;;;;;5016906;28;20867;-42
2021/03/07 03:33:59;;;;;;;11.37;8.80;;;0.10;69.60;;;;;;5020919;28;20892;-42
2021/03/07 03:36:25;;;;;;;11.60;9.07;;;0.10;69.70;;;;;;5022992;28;20490;-42
2021/03/07 03:38:59;;;;;;;9.67;7.70;;;0.10;69.70;;;;;;4996844;28;20506;-42
2021/03/07 03:41:30;;;;;;;12.33;9.10;;;0.10;69.70;;;;;;5020708;28;20842;-42
2021/03/07 03:44:01;;;;;;;11.00;9.10;;;0.00;69.70;;;;;;5031059;28;20845;-42
2021/03/07 03:46:32;;;;;;;12.37;9.13;;;0.00;69.80;;;;;;5019169;28;20562;-41
2021/03/07 03:49:03;;;;;;;11.20;7.83;;;0.00;69.80;;;;;;5020718;28;20471;-41
2021/03/07 03:51:40;;;;;;;10.47;7.60;;;0.00;69.80;;;;;;5025363;28;20987;-41
2021/03/07 03:54:11;;;;;;;11.00;7.93;;;0.00;69.90;;;;;;5018919;28;20537;-41
2021/03/07 03:56:38;;;;;;;11.20;7.70;;;0.00;69.70;;;;;;5001020;28;20916;-41
2021/03/07 03:59:06;;;;;;;7.90;7.20;;;-0.10;69.80;;;;;;4998284;28;21031;-41
2021/03/07 04:01:35;;;;;;;13.40;8.10;;;-0.10;69.90;;;;;;5005056;28;20495;-41
2021/03/07 04:04:03;;;;;;;11.83;8.03;;;-0.10;69.90;;;;;;5001542;28;20459;-41
2021/03/07 04:06:30;;;;;;;12.77;9.00;;;-0.10;69.90;;;;;;5022646;28;20475;-41
2021/03/07 04:08:57;;;;;;;12.47;7.90;;;-0.10;69.90;;;;;;5018862;28;20566;-41
2021/03/07 04:11:24;;;;;;;10.30;9.23;;;-0.10;69.90;;;;;;5018109;28;20482;-41
2021/03/07 04:14:06;;;;;;;11.60;8.53;;;-0.20;70.00;;;;;;5019056;28;20859;-41
2021/03/07 04:16:33;;;;;;;12.57;9.07;;;-0.20;70.00;;;;;;5017163;28;20937;-41
2021/03/07 04:19:00;;;;;;;10.47;8.20;;;-0.20;70.10;;;;;;5018082;28;20877;-41
2021/03/07 04:21:28;;;;;;;10.57;8.80;;;-0.20;70.10;;;;;;5018657;28;20551;-41
2021/03/07 04:23:54;;;;;;;9.90;8.43;;;-0.20;70.20;;;;;;5005000;28;21079;-41
2021/03/07 04:26:21;;;;;;;10.93;8.63;;;-0.30;70.30;;;;;;5034471;28;20459;-41
2021/03/07 04:28:49;;;;;;;11.60;7.97;;;-0.30;70.40;;;;;;5020771;28;20468;-41
2021/03/07 04:31:16;;;;;;;11.33;8.70;;;-0.30;70.60;;;;;;5015966;28;20485;-41
2021/03/07 04:33:43;;;;;;;11.57;8.40;;;-0.30;70.70;;;;;;4999839;28;20473;-41
2021/03/07 04:36:10;;;;;;;9.27;8.37;;;-0.30;70.60;;;;;;5003040;28;20476;-41
2021/03/07 04:38:40;;;;;;;10.77;8.40;;;-0.30;70.60;;;;;;5022807;28;20488;-41
2021/03/07 04:41:06;;;;;;;10.53;7.37;;;-0.30;70.80;;;;;;5003485;28;20499;-41
2021/03/07 04:43:51;;;;;;;10.20;7.80;;;-0.30;70.90;;;;;;5017997;28;20634;-41
2021/03/07 04:46:19;;;;;;;13.27;7.47;;;-0.30;70.80;;;;;;5033311;28;21786;-41
2021/03/07 04:48:46;;;;;;;10.70;9.30;;;-0.30;70.90;;;;;;5003809;28;20463;-41
2021/03/07 04:51:13;;;;;;;13.60;7.97;;;-0.30;70.80;;;;;;5014767;28;20540;-41
2021/03/07 04:53:40;;;;;;;8.50;7.30;;;-0.30;70.80;;;;;;5032245;28;20470;-41
2021/03/07 04:56:06;;;;;;;10.07;9.07;;;-0.30;70.80;;;;;;5018585;28;20935;-41
2021/03/07 04:58:35;;;;;;;10.40;7.83;;;-0.40;70.80;;;;;;5005546;28;20486;-41
2021/03/07 05:01:03;;;;;;;10.70;7.27;;;-0.40;70.80;;;;;;5032525;28;20459;-41
2021/03/07 05:03:31;;;;;;;7.73;6.93;;;-0.40;70.80;;;;;;5015660;28;20467;-41
2021/03/07 05:05:58;;;;;;;14.50;8.43;;;-0.40;70.80;;;;;;5017226;28;20502;-41
2021/03/07 05:08:25;;;;;;;12.87;9.00;;;-0.40;70.60;;;;;;5017711;28;20952;-41
2021/03/07 05:10:53;;;;;;;13.20;7.73;;;-0.50;70.80;;;;;;5017964;28;20467;-41
2021/03/07 05:13:20;;;;;;;10.50;7.67;;;-0.50;70.80;;;;;;5016953;28;20525;-41
2021/03/07 05:15:46;;;;;;;9.20;7.50;;;-0.50;70.80;;;;;;5030540;28;20463;-41
2021/03/07 05:18:12;;;;;;;9.27;7.60;;;-0.50;70.80;;;;;;5021025;28;20811;-41
2021/03/07 05:20:39;;;;;;;9.23;7.07;;;-0.50;70.90;;;;;;5019064;28;20926;-41
2021/03/07 05:23:05;;;;;;;12.93;8.33;;;-0.50;70.90;;;;;;5020071;28;20466;-41
2021/03/07 05:25:32;;;;;;;8.50;6.90;;;-0.50;70.90;;;;;;5003112;28;20550;-41
2021/03/07 05:28:01;;;;;;;8.13;6.37;;;-0.50;70.80;;;;;;5040233;28;20462;-41
2021/03/07 05:30:27;;;;;;;11.43;7.07;;;-0.50;70.80;;;;;;5000598;28;20550;-41
2021/03/07 05:32:54;;;;;;;13.17;7.37;;;-0.50;70.90;;;;;;5000704;28;20952;-41
2021/03/07 05:35:24;;;;;;;8.93;7.70;;;-0.50;71.00;;;;;;5006116;28;20459;-41
2021/03/07 05:37:51;;;;;;;10.97;7.93;;;-0.60;71.00;;;;;;5003515;28;20459;-41
2021/03/07 05:40:18;;;;;;;11.83;6.97;;;-0.60;71.00;;;;;;5022962;28;20625;-41
2021/03/07 05:42:45;;;;;;;12.03;7.60;;;-0.60;71.00;;;;;;5024339;28;20546;-41
2021/03/07 05:45:24;;;;;;;11.17;7.60;;;-0.50;71.00;;;;;;5019645;28;20694;-41
2021/03/07 05:47:52;;;;;;;11.57;6.57;;;-0.60;70.90;;;;;;5016892;28;20466;-41
2021/03/07 05:50:19;;;;;;;8.83;6.53;;;-0.60;70.80;;;;;;5002036;28;20471;-41
2021/03/07 05:52:47;;;;;;;9.20;7.00;;;-0.60;70.90;;;;;;5020210;28;20833;-41
2021/03/07 05:55:14;;;;;;;9.00;7.50;;;-0.60;70.90;;;;;;5003806;28;20835;-41
2021/03/07 05:57:45;;;;;;;12.77;6.77;;;-0.60;70.90;;;;;;4999832;28;20544;-41
2021/03/07 06:00:13;;;;;;;11.53;7.20;;;-0.60;70.90;;;;;;5027645;28;20947;-41
2021/03/07 06:02:39;;;;;;;9.90;6.63;;;-0.60;71.00;;;;;;5004919;28;20467;-41
2021/03/07 06:05:06;;;;;;;10.30;6.70;;;-0.60;70.90;;;;;;5022695;28;20467;-41
2021/03/07 06:07:35;;;;;;;9.27;6.20;;;-0.70;70.90;;;;;;5029087;28;20903;-41
2021/03/07 06:10:24;;;;;;;10.23;6.97;;;-0.60;70.80;;;;;;5010367;28;20495;-41
2021/03/07 06:13:09;;;;;;;8.17;6.43;;;-0.70;70.80;;;;;;5031807;28;20527;-41
2021/03/07 06:16:06;;;;;;;8.53;6.60;;;-0.70;70.90;;;;;;5027606;28;20471;-41
2021/03/07 06:18:42;;;;;;;13.07;7.60;;;-0.70;71.00;;;;;;5012724;28;21000;-41
2021/03/07 06:21:42;;;;;;;9.63;7.70;;;-0.70;71.10;;;;;;5027124;28;20466;-41
2021/03/07 06:24:35;;;;;;;9.37;7.03;;;-0.70;71.20;;;;;;5008569;28;20487;-41
2021/03/07 06:27:08;;;;;;;11.17;7.00;;;-0.70;71.40;;;;;;5030710;28;20519;-41
2021/03/07 06:29:57;;;;;;;11.30;7.63;;;-0.70;71.40;;;;;;5011117;28;20488;-41
2021/03/07 06:32:26;;;;;;;10.80;6.80;;;-0.70;71.40;;;;;;5042870;28;20476;-41
2021/03/07 06:34:52;;;;;;;11.27;7.10;;;-0.70;71.50;;;;;;5029745;28;20463;-41
2021/03/07 06:37:19;;;;;;;11.13;7.53;;;-0.70;71.50;;;;;;5009293;28;20442;-41
2021/03/07 06:39:47;;;;;;;9.10;6.47;;;-0.70;71.60;;;;;;5012792;28;20494;-41
2021/03/07 06:42:14;;;;;;;13.50;6.80;;;-0.70;71.70;;;;;;5011157;28;20530;-41
2021/03/07 06:45:04;;;;;;;8.77;7.00;;;-0.60;71.70;;;;;;5029442;28;20471;-41
2021/03/07 06:47:30;;;;;;;13.10;8.90;;;-0.60;71.80;;;;;;5043563;28;20482;-41
2021/03/07 06:50:11;;;;;;;8.80;7.90;;;-0.60;71.90;;;;;;5032649;28;20458;-41
2021/03/07 06:52:51;;;;;;;10.43;8.13;;;-0.60;72.00;;;;;;4997121;28;20463;-41
2021/03/07 06:55:19;;;;;;;15.83;8.73;;;-0.60;72.10;;;;;;5010799;28;20533;-41
2021/03/07 06:57:46;;;;;;;14.90;8.00;;;-0.50;72.30;;;;;;5022875;28;20495;-41
2021/03/07 07:00:13;;;;;;;10.90;8.30;;;-0.50;72.30;;;;;;5043241;28;20831;-41
2021/03/07 07:03:31;;;;;;;11.10;8.60;;;-0.50;72.40;;;;;;5025821;28;20440;-41
2021/03/07 07:05:58;;;;;;;11.63;9.50;;;-0.40;72.50;;;;;;5029202;28;20456;-41
2021/03/07 07:08:45;;;;;;;11.67;8.53;;;-0.40;72.70;;;;;;5031101;28;21027;-41
2021/03/07 07:11:11;;;;;;;11.87;9.50;;;-0.30;72.80;;;;;;5026426;28;20522;-41
2021/03/07 07:13:48;;;;;;;12.33;8.63;;;-0.30;72.90;;;;;;4989905;28;20510;-41
2021/03/07 07:16:35;;;;;;;10.97;8.77;;;-0.30;73.00;;;;;;5014953;28;20828;-41
2021/03/07 07:19:03;;;;;;;11.23;8.63;;;-0.20;73.10;;;;;;5012446;28;20565;-41
2021/03/07 07:21:29;;;;;;;13.03;9.60;;;-0.20;73.10;;;;;;5028043;28;21000;-41
2021/03/07 07:23:56;;;;;;;18.47;10.20;;;-0.10;73.20;;;;;;5009549;28;21154;-41
2021/03/07 07:26:30;;;;;;;12.10;10.40;;;-0.10;73.20;;;;;;5031244;28;20491;-41
2021/03/07 07:28:58;;;;;;;13.57;10.23;;;0.00;73.30;;;;;;5011516;28;20525;-41
2021/03/07 07:31:33;;;;;;;16.00;9.67;;;0.10;73.30;;;;;;5023613;28;20491;-41
2021/03/07 07:34:07;;;;;;;16.20;9.80;;;0.20;73.00;;;;;;5030535;28;20498;-41
2021/03/07 07:36:52;;;;;;;13.20;9.20;;;0.20;72.90;;;;;;5025346;28;20476;-41
2021/03/07 07:39:31;;;;;;;14.47;8.80;;;0.20;73.00;;;;;;5031241;28;20503;-42
2021/03/07 07:41:58;;;;;;;8.90;7.50;;;0.30;73.00;;;;;;5045357;28;20512;-42
2021/03/07 07:44:33;;;;;;;9.63;7.83;;;0.40;72.90;;;;;;5025542;28;20509;-41
2021/03/07 07:47:04;;;;;;;9.50;7.83;;;0.40;72.90;;;;;;5011903;28;20531;-41
2021/03/07 07:49:40;;;;;;;10.17;7.97;;;0.50;72.70;;;;;;5025875;28;20530;-42
2021/03/07 07:52:24;;;;;;;9.53;8.03;;;0.60;72.70;;;;;;5028331;28;20514;-41
2021/03/07 07:54:58;;;;;;;11.50;8.23;;;0.70;72.60;;;;;;5024335;28;20981;-42
2021/03/07 07:57:35;;;;;;;9.93;8.20;;;0.80;72.40;;;;;;5030789;28;20538;-41
2021/03/07 08:00:09;;;;;;;11.13;7.60;;;0.90;72.20;;;;;;5029790;28;20491;-41
2021/03/07 08:02:53;;;;;;;10.23;7.10;;;1.00;72.10;;;;;;5031093;28;20553;-42
2021/03/07 08:05:19;;;;;;;11.83;7.23;;;1.20;72.00;;;;;;5026046;28;20486;-41
2021/03/07 08:07:56;;;;;;;12.90;7.53;;;1.40;71.40;;;;;;5023954;28;20496;-41
2021/03/07 08:10:50;;;;;;;9.73;7.50;;;1.60;69.50;;;;;;5027778;28;20494;-41
2021/03/07 08:13:36;;;;;;;12.73;7.27;;;1.80;68.80;;;;;;5024832;28;20494;-41
2021/03/07 08:16:04;;;;;;;8.37;6.37;;;2.00;68.60;;;;;;5028914;28;21038;-41
2021/03/07 08:18:53;;;;;;;13.40;8.90;;;2.20;66.40;;;;;;4994922;28;21950;-41
2021/03/07 08:21:22;;;;;;;9.47;7.50;;;2.40;65.70;;;;;;5004977;28;20463;-41
2021/03/07 08:23:59;;;;;;;7.97;7.17;;;2.60;64.30;;;;;;5002750;28;20526;-41
2021/03/07 08:26:42;;;;;;;11.93;7.03;;;2.80;64.30;;;;;;5025159;28;20487;-41
2021/03/07 08:29:44;;;;;;;10.80;6.93;;;3.00;63.80;;;;;;5025498;28;20501;-41
2021/03/07 08:32:32;;;;;;;9.10;8.13;;;3.30;63.50;;;;;;5026622;28;20498;-41
2021/03/07 08:35:20;;;;;;;15.03;8.10;;;3.50;61.70;;;;;;5026877;28;20870;-41
2021/03/07 08:38:16;;;;;;;11.30;7.70;;;3.80;60.90;;;;;;5027267;28;21011;-41
2021/03/07 08:40:56;;;;;;;11.67;7.87;;;4.10;59.40;;;;;;5029366;28;20507;-41
2021/03/07 08:43:24;;;;;;;12.13;8.50;;;4.30;58.80;;;;;;5025829;28;20541;-41
2021/03/07 08:46:08;;;;;;;10.03;7.27;;;4.50;58.00;;;;;;5029173;28;20521;-41
2021/03/07 08:48:35;;;;;;;8.10;7.23;;;4.80;57.80;;;;;;5010054;28;20959;-42
2021/03/07 08:51:03;;;;;;;7.90;7.13;;;5.00;56.80;;;;;;4993753;28;20475;-42
2021/03/07 08:53:35;;;;;;;7.90;6.37;;;5.20;55.80;;;;;;5024036;28;21176;-42
2021/03/07 08:56:03;;;;;;;7.40;6.47;;;5.50;55.50;;;;;;5023826;28;20530;-42
2021/03/07 08:58:32;;;;;;;6.30;5.70;;;5.70;53.90;;;;;;5026620;28;20580;-42
2021/03/07 09:00:59;;;;;;;10.20;7.13;;;5.90;52.60;;;;;;5024545;28;20907;-42
2021/03/07 09:03:28;;;;;;;9.07;6.53;;;6.10;51.00;;;;;;5008931;28;20483;-42
2021/03/07 09:05:55;;;;;;;6.27;5.67;;;6.20;50.70;;;;;;5027671;28;20833;-42
2021/03/07 09:08:23;;;;;;;14.87;7.10;;;6.30;49.80;;;;;;5030873;28;20459;-42
2021/03/07 09:10:55;;;;;;;10.73;7.43;;;6.30;50.00;;;;;;5011733;28;20554;-42
2021/03/07 09:13:24;;;;;;;7.40;6.67;;;6.30;50.20;;;;;;5026850;28;20524;-42
2021/03/07 09:15:53;;;;;;;6.97;6.30;;;6.40;50.60;;;;;;5030108;28;20459;-42
2021/03/07 09:18:25;;;;;;;11.70;7.07;;;6.40;51.00;;;;;;5011380;28;20459;-42
2021/03/07 09:21:17;;;;;;;7.23;6.53;;;6.50;50.90;;;;;;5028755;28;20465;-42
2021/03/07 09:23:49;;;;;;;9.80;7.50;;;6.50;51.00;;;;;;5008135;28;20495;-42
2021/03/07 09:26:24;;;;;;;7.43;6.37;;;6.60;50.40;;;;;;5013522;28;20473;-42
2021/03/07 09:28:55;;;;;;;7.20;6.33;;;6.70;50.60;;;;;;5042072;28;20510;-42
2021/03/07 09:31:23;;;;;;;9.30;6.47;;;6.70;50.80;;;;;;5029003;28;20463;-42
2021/03/07 09:34:00;;;;;;;10.20;7.10;;;6.80;49.70;;;;;;5031943;28;20468;-42
2021/03/07 09:36:28;;;;;;;9.20;7.13;;;6.80;50.10;;;;;;5009679;28;20558;-42
2021/03/07 09:38:59;;;;;;;8.60;7.20;;;6.90;49.90;;;;;;5014251;28;20885;-42
2021/03/07 09:41:46;;;;;;;12.33;7.47;;;7.00;49.80;;;;;;5011199;28;20472;-42
2021/03/07 09:44:19;;;;;;;7.83;7.13;;;7.10;49.90;;;;;;5042613;28;20483;-42
2021/03/07 09:46:51;;;;;;;8.23;7.43;;;7.20;49.20;;;;;;5029888;28;20932;-42
2021/03/07 09:49:23;;;;;;;9.63;7.40;;;7.30;49.10;;;;;;5030622;28;20455;-42
2021/03/07 09:51:52;;;;;;;7.40;6.50;;;7.40;48.70;;;;;;5028995;28;20822;-42
2021/03/07 09:54:20;;;;;;;8.67;7.50;;;7.60;48.30;;;;;;5029244;28;20451;-42
2021/03/07 09:56:47;;;;;;;11.53;8.40;;;7.90;48.20;;;;;;5010003;28;20518;-42
2021/03/07 09:59:21;;;;;;;8.03;6.83;;;8.10;47.10;;;;;;5009699;28;20601;-42
2021/03/07 10:01:49;;;;;;;10.17;7.60;;;8.30;46.50;;;;;;5028493;28;20677;-42
2021/03/07 10:04:31;;;;;;;8.60;7.70;;;8.50;46.50;;;;;;5010296;28;21007;-42
2021/03/07 10:06:59;;;;;;;9.10;7.20;;;8.70;46.60;;;;;;5028311;28;20459;-42
2021/03/07 10:09:26;;;;;;;10.37;7.73;;;8.90;45.60;;;;;;5007866;28;20518;-42
2021/03/07 10:12:01;;;;;;;9.53;8.53;;;9.00;45.50;;;;;;5028734;28;20452;-42
2021/03/07 10:14:32;;;;;;;9.20;8.27;;;9.10;45.20;;;;;;5026176;28;20450;-42
2021/03/07 10:17:00;;;;;;;8.50;7.27;;;9.20;45.20;;;;;;5025810;28;20492;-42
2021/03/07 10:19:36;;;;;;;8.50;7.60;;;9.40;45.10;;;;;;5028259;28;20991;-42
2021/03/07 10:22:04;;;;;;;7.37;6.60;;;9.70;44.40;;;;;;5028467;28;20459;-42
2021/03/07 10:24:34;;;;;;;7.30;6.60;;;10.00;43.60;;;;;;5029833;28;20945;-42
2021/03/07 10:27:04;;;;;;;8.97;7.10;;;10.20;42.70;;;;;;5027983;28;20501;-42
2021/03/07 10:29:34;;;;;;;8.47;7.57;;;10.50;42.20;;;;;;5027268;28;20474;-43
2021/03/07 10:32:21;;;;;;;9.30;7.30;;;10.80;41.60;;;;;;5029971;28;20462;-42
2021/03/07 10:34:53;;;;;;;8.13;7.40;;;11.10;41.20;;;;;;5028351;28;20462;-42
2021/03/07 10:37:41;;;;;;;8.10;7.30;;;11.40;40.80;;;;;;5011634;28;20451;-43
2021/03/07 10:40:11;;;;;;;7.50;6.80;;;11.60;40.50;;;;;;5027498;28;20561;-43
2021/03/07 10:42:41;;;;;;;8.50;7.70;;;11.90;40.10;;;;;;5032647;28;20466;-43
2021/03/07 10:45:23;;;;;;;9.40;7.73;;;12.10;39.90;;;;;;5012638;28;20491;-42
2021/03/07 10:48:03;;;;;;;7.50;6.80;;;12.30;38.10;;;;;;5030842;28;20517;-43
2021/03/07 10:50:30;;;;;;;7.53;6.83;;;12.40;38.10;;;;;;5026593;28;20448;-42
2021/03/07 10:53:01;;;;;;;9.77;8.30;;;12.50;37.80;;;;;;5028369;28;20459;-43
2021/03/07 10:55:27;;;;;;;9.00;8.10;;;12.50;38.30;;;;;;5025368;28;20483;-43
2021/03/07 10:57:54;;;;;;;9.07;7.93;;;12.60;38.50;;;;;;5025794;28;20455;-43
2021/03/07 11:00:23;;;;;;;8.70;7.80;;;12.60;37.40;;;;;;5026325;28;20559;-42
2021/03/07 11:02:51;;;;;;;7.70;6.93;;;12.50;37.40;;;;;;5014573;28;20456;-42
2021/03/07 11:05:18;;;;;;;8.63;7.80;;;12.50;37.70;;;;;;5011514;28;20679;-43
2021/03/07 11:07:45;;;;;;;11.37;9.73;;;12.40;37.80;;;;;;5026707;28;20521;-43
2021/03/07 11:10:15;;;;;;;9.13;8.27;;;12.30;37.60;;;;;;5008717;28;20522;-43
2021/03/07 11:12:42;;;;;;;7.70;6.80;;;12.20;38.10;;;;;;5026068;28;20478;-43
2021/03/07 11:15:10;;;;;;;6.50;5.90;;;12.20;38.50;;;;;;5008291;28;20477;-43
2021/03/07 11:17:41;;;;;;;9.93;7.60;;;12.20;38.30;;;;;;5026312;28;20459;-43
2021/03/07 11:20:10;;;;;;;7.83;6.33;;;12.10;37.50;;;;;;5009273;28;20892;-43
2021/03/07 11:22:37;;;;;;;9.57;8.57;;;12.10;36.80;;;;;;5026826;28;21003;-43
2021/03/07 11:25:05;;;;;;;7.77;6.67;;;12.10;36.90;;;;;;5025791;28;20550;-43
2021/03/07 11:27:34;;;;;;;7.27;6.50;;;12.10;36.80;;;;;;5009537;28;20471;-43
2021/03/07 11:30:01;;;;;;;7.23;6.03;;;12.10;36.50;;;;;;5027767;28;20455;-43
2021/03/07 11:32:31;;;;;;;6.77;5.50;;;12.10;36.50;;;;;;5029584;28;20980;-43
2021/03/07 11:34:58;;;;;;;6.20;5.33;;;12.20;35.90;;;;;;5009999;28;20876;-43
2021/03/07 11:37:24;;;;;;;6.20;5.60;;;12.10;34.90;;;;;;5021484;28;20543;-43
2021/03/07 11:39:51;;;;;;;6.87;5.93;;;12.20;35.60;;;;;;5026360;28;20911;-43
2021/03/07 11:42:17;;;;;;;6.00;5.40;;;12.20;36.10;;;;;;5025090;28;20539;-42
2021/03/07 11:44:47;;;;;;;7.00;6.10;;;12.30;36.60;;;;;;5027182;28;20495;-41
2021/03/07 11:47:14;;;;;;;6.50;5.83;;;12.30;35.80;;;;;;5023990;28;20492;-42
2021/03/07 11:49:43;;;;;;;9.83;5.70;;;12.20;35.70;;;;;;5026863;28;20829;-42
2021/03/07 11:52:10;;;;;;;7.30;6.20;;;12.20;35.50;;;;;;5007439;28;20463;-42
2021/03/07 11:54:37;;;;;;;5.77;5.07;;;12.10;35.40;;;;;;4992578;28;20448;-42
2021/03/07 11:57:07;;;;;;;7.90;6.93;;;12.10;35.30;;;;;;5022208;28;20468;-42
2021/03/07 11:59:34;;;;;;;8.53;5.97;;;12.00;35.60;;;;;;5027926;28;20490;-43
2021/03/07 12:02:02;;;;;;;5.93;5.40;;;11.90;34.90;;;;;;5008399;28;20463;-43
2021/03/07 12:04:28;;;;;;;7.33;5.80;;;11.80;34.70;;;;;;5026485;28;20935;-42
2021/03/07 12:06:55;;;;;;;7.63;6.53;;;11.70;35.10;;;;;;5005774;28;20538;-42
2021/03/07 12:09:26;;;;;;;5.83;5.30;;;11.50;35.70;;;;;;5027359;28;20909;-42
2021/03/07 12:11:56;;;;;;;5.40;4.70;;;11.40;36.40;;;;;;5029456;28;20971;-42
2021/03/07 12:14:22;;;;;;;6.30;5.70;;;11.30;36.50;;;;;;5010603;28;20523;-42
2021/03/07 12:16:49;;;;;;;6.13;5.50;;;11.30;35.70;;;;;;5010361;28;20631;-42
2021/03/07 12:19:15;;;;;;;6.10;5.40;;;11.30;35.40;;;;;;4993118;28;20886;-42
2021/03/07 12:21:41;;;;;;;5.57;5.07;;;11.20;34.70;;;;;;5009101;28;20458;-42
2021/03/07 12:24:08;;;;;;;6.20;5.27;;;11.30;34.70;;;;;;5030778;28;20542;-42
2021/03/07 12:26:35;;;;;;;5.50;5.00;;;11.20;33.80;;;;;;5024673;28;20509;-42
2021/03/07 12:29:05;;;;;;;7.60;5.07;;;11.10;35.40;;;;;;5008563;28;20494;-42
2021/03/07 12:31:32;;;;;;;6.53;4.80;;;11.10;36.00;;;;;;5026281;28;20451;-42
2021/03/07 12:34:00;;;;;;;6.40;5.03;;;11.10;35.60;;;;;;5026124;28;20455;-42
2021/03/07 12:36:27;;;;;;;6.23;5.20;;;11.10;34.60;;;;;;4992089;28;20902;-42
2021/03/07 12:38:54;;;;;;;9.40;6.63;;;11.00;35.10;;;;;;5025204;28;20530;-42
2021/03/07 12:41:21;;;;;;;9.40;7.10;;;11.00;35.90;;;;;;5008696;28;20455;-42
2021/03/07 12:43:48;;;;;;;8.67;6.83;;;11.10;36.40;;;;;;5025822;28;20892;-41
2021/03/07 12:46:14;;;;;;;8.90;7.10;;;11.20;36.00;;;;;;5028415;28;20534;-41
2021/03/07 12:48:43;;;;;;;5.90;5.40;;;11.20;35.70;;;;;;5028337;28;20546;-42
2021/03/07 12:51:12;;;;;;;7.70;6.43;;;11.30;36.00;;;;;;5027304;28;20951;-42
2021/03/07 12:53:41;;;;;;;21.90;12.80;;;11.30;36.20;;;;;;5027035;28;20487;-42
2021/03/07 12:56:08;;;;;;;10.80;7.50;;;11.40;35.20;;;;;;5009158;28;20539;-42
2021/03/07 12:58:34;;;;;;;14.23;8.10;;;11.40;35.20;;;;;;5012580;28;20495;-42
2021/03/07 13:01:02;;;;;;;10.23;6.27;;;11.50;34.90;;;;;;4996495;28;20550;-42
2021/03/07 13:03:29;;;;;;;7.03;5.83;;;11.50;34.50;;;;;;5010927;28;20470;-42
2021/03/07 13:05:58;;;;;;;6.53;5.83;;;11.60;34.10;;;;;;5030106;28;20452;-42